Time;durP1;ratioP1;P1;durP2;ratioP2;P2;SDS_P1;SDS_P2;PMS_P1;PMS_P2;Temp;Humidity;BMP_temperature;BMP_pressure;BME280_temperature;BME280_humidity;BME280_pressure;Samples;Min_cycle;Max_cycle;Signal;HPM_P1;HPM_P2
2022/09/30 00:01:28;;;;;;;2.43;2.23;;;11.30;99.90;;;11.63;nan;99800.31;4992879;28;21115;-62
2022/09/30 00:03:56;;;;;;;2.30;2.10;;;11.30;99.90;;;11.52;nan;99798.66;4976600;28;20614;-65
2022/09/30 00:06:26;;;;;;;2.40;2.20;;;11.20;99.90;;;11.68;nan;99806.00;5000201;28;20634;-65
2022/09/30 00:08:53;;;;;;;2.90;2.37;;;11.30;99.90;;;11.69;nan;99797.22;5012497;28;20661;-66
2022/09/30 00:11:24;;;;;;;3.53;2.43;;;11.30;99.90;;;11.72;nan;99799.53;5012713;28;20661;-66
2022/09/30 00:13:52;;;;;;;3.97;1.97;;;11.30;99.90;;;11.72;nan;99801.31;5003199;28;20676;-66
2022/09/30 00:16:21;;;;;;;3.03;2.27;;;11.30;99.90;;;11.71;nan;99797.06;5011943;28;21328;-65
2022/09/30 00:18:49;;;;;;;2.80;2.60;;;11.30;99.90;;;11.67;nan;99805.19;5010565;28;20668;-66
2022/09/30 00:21:16;;;;;;;3.13;2.10;;;11.30;99.90;;;11.71;nan;99790.06;4995166;28;20640;-66
2022/09/30 00:23:45;;;;;;;2.97;2.77;;;11.30;99.90;;;11.73;nan;99803.81;5010719;28;20653;-66
2022/09/30 00:26:16;;;;;;;2.70;2.50;;;11.30;99.90;;;11.76;nan;99806.16;5012824;28;20621;-65
2022/09/30 00:28:44;;;;;;;1.63;1.53;;;11.30;99.90;;;11.76;nan;99806.16;5010464;28;20657;-66
2022/09/30 00:31:14;;;;;;;3.10;2.57;;;11.30;99.90;;;11.78;nan;99811.22;5012260;28;20618;-65
2022/09/30 00:33:43;;;;;;;2.60;2.40;;;11.30;99.90;;;11.79;nan;99808.50;4994575;28;21197;-65
2022/09/30 00:36:10;;;;;;;3.30;2.80;;;11.30;99.90;;;11.77;nan;99810.41;4995745;28;20622;-65
2022/09/30 00:38:37;;;;;;;3.10;2.80;;;11.30;99.90;;;11.63;nan;99808.16;5011732;28;20677;-66
2022/09/30 00:41:04;;;;;;;2.20;2.10;;;11.20;99.90;;;11.74;nan;99813.28;5012951;28;20633;-65
2022/09/30 00:43:52;;;;;;;2.80;2.50;;;11.30;99.90;;;11.69;nan;99815.53;5010341;28;20630;-65
2022/09/30 00:46:38;;;;;;;3.20;2.87;;;11.30;99.90;;;11.43;nan;99809.97;5004876;28;20630;-67
2022/09/30 00:49:19;;;;;;;2.80;2.33;;;11.20;99.90;;;11.32;nan;99811.84;4994467;28;20628;-66
2022/09/30 00:51:52;;;;;;;2.87;2.67;;;11.10;99.90;;;11.05;nan;99809.03;5012198;28;21050;-63
2022/09/30 00:54:28;;;;;;;3.00;2.80;;;11.00;99.90;;;11.24;nan;99809.09;5010214;28;21059;-68
2022/09/30 00:57:00;;;;;;;3.77;2.93;;;10.90;99.90;;;11.11;nan;99801.50;4993546;28;21032;-65
2022/09/30 00:59:34;;;;;;;2.83;2.60;;;10.90;99.90;;;11.06;nan;99808.91;5010009;28;20676;-65
2022/09/30 01:02:01;;;;;;;3.70;2.87;;;10.80;99.90;;;11.00;nan;99812.03;5010905;28;20634;-64
2022/09/30 01:04:31;;;;;;;3.20;2.50;;;10.80;99.90;;;11.05;nan;99814.25;5011668;28;20614;-66
2022/09/30 01:07:04;;;;;;;3.27;2.60;;;10.80;99.90;;;10.98;nan;99815.75;5011784;28;20666;-66
2022/09/30 01:09:36;;;;;;;3.63;2.40;;;10.70;99.90;;;11.05;nan;99816.88;5010707;28;20644;-67
2022/09/30 01:12:11;;;;;;;2.30;2.20;;;10.80;99.90;;;11.11;nan;99818.94;4994650;28;20629;-65
2022/09/30 01:14:39;;;;;;;2.93;2.00;;;10.80;99.90;;;11.13;nan;99814.41;4997440;28;20634;-65
2022/09/30 01:17:35;;;;;;;2.33;2.00;;;10.80;99.90;;;11.14;nan;99816.09;4976568;28;20669;-65
2022/09/30 01:20:25;;;;;;;1.80;1.70;;;10.80;99.90;;;11.20;nan;99816.34;4993002;28;20617;-65
2022/09/30 01:23:16;;;;;;;1.70;1.60;;;10.80;99.90;;;11.21;nan;99811.97;5010985;28;20695;-65
2022/09/30 01:26:25;;;;;;;2.00;1.90;;;10.80;99.90;;;11.16;nan;99817.56;5011353;28;21118;-65
2022/09/30 01:29:37;;;;;;;2.43;2.23;;;10.80;99.90;;;11.15;nan;99828.16;5010499;28;20665;-66
2022/09/30 01:32:28;;;;;;;2.77;2.07;;;10.80;99.90;;;11.11;nan;99824.16;4994385;28;20633;-65
2022/09/30 01:35:35;;;;;;;4.23;1.93;;;10.80;99.90;;;11.12;nan;99824.03;4993346;28;20695;-65
2022/09/30 01:38:29;;;;;;;1.83;1.73;;;10.70;99.90;;;11.10;nan;99830.34;5009854;28;20676;-67
2022/09/30 01:41:17;;;;;;;2.00;1.90;;;10.70;99.90;;;11.13;nan;99830.91;4993162;28;21039;-67
2022/09/30 01:44:13;;;;;;;1.77;1.67;;;10.70;99.90;;;11.04;nan;99820.44;5010341;28;20642;-64
2022/09/30 01:46:47;;;;;;;2.23;2.10;;;10.70;99.90;;;11.07;nan;99828.84;4993435;28;20625;-67
2022/09/30 01:49:35;;;;;;;2.70;2.50;;;10.70;99.90;;;11.08;nan;99825.25;4992658;28;20993;-65
2022/09/30 01:52:10;;;;;;;2.20;2.00;;;10.70;99.90;;;11.08;nan;99837.47;4994149;28;20691;-65
2022/09/30 01:55:01;;;;;;;2.30;2.20;;;10.70;99.90;;;11.09;nan;99836.53;4992867;28;21125;-65
2022/09/30 01:57:59;;;;;;;1.90;1.80;;;10.70;99.90;;;11.15;nan;99843.81;5011364;28;20634;-65
2022/09/30 02:00:26;;;;;;;1.67;1.57;;;10.70;99.90;;;11.21;nan;99843.28;5011610;28;20613;-65
2022/09/30 02:03:12;;;;;;;2.50;1.93;;;10.80;99.90;;;11.26;nan;99841.13;5010496;28;20638;-66
2022/09/30 02:05:52;;;;;;;2.10;2.00;;;10.80;99.90;;;11.17;nan;99847.13;4993664;28;20667;-65
2022/09/30 02:08:30;;;;;;;2.73;2.27;;;10.80;99.90;;;11.21;nan;99843.28;5009371;28;20656;-66
2022/09/30 02:11:14;;;;;;;2.70;2.30;;;10.80;99.90;;;11.06;nan;99842.00;4993742;28;20622;-66
2022/09/30 02:13:55;;;;;;;2.50;2.20;;;10.80;99.90;;;11.12;nan;99841.47;4993126;28;20710;-65
2022/09/30 02:16:31;;;;;;;2.50;2.40;;;10.80;99.90;;;11.22;nan;99844.97;5011682;28;21332;-65
2022/09/30 02:19:10;;;;;;;2.17;1.97;;;10.80;99.90;;;11.22;nan;99847.56;5009659;28;20669;-66
2022/09/30 02:21:40;;;;;;;2.33;2.13;;;10.80;99.90;;;11.26;nan;99854.16;4992611;28;21007;-66
2022/09/30 02:24:15;;;;;;;3.50;2.00;;;10.90;99.90;;;11.27;nan;99851.41;4993021;28;20630;-64
2022/09/30 02:26:46;;;;;;;1.70;1.60;;;10.90;99.90;;;11.31;nan;99858.03;5010600;28;20633;-64
2022/09/30 02:29:34;;;;;;;2.10;1.70;;;10.90;99.90;;;11.28;nan;99854.88;4992380;28;20636;-65
2022/09/30 02:32:12;;;;;;;2.10;1.90;;;10.90;99.90;;;11.28;nan;99857.47;4993764;28;20632;-66
2022/09/30 02:34:48;;;;;;;2.17;2.07;;;10.90;99.90;;;11.33;nan;99858.72;4992806;28;21187;-66
2022/09/30 02:37:36;;;;;;;2.47;1.77;;;10.90;99.90;;;11.36;nan;99865.47;4993656;28;20769;-66
2022/09/30 02:40:17;;;;;;;1.70;1.70;;;11.00;99.90;;;11.38;nan;99866.16;5006995;28;20727;-67
2022/09/30 02:42:45;;;;;;;1.90;1.80;;;11.00;99.90;;;11.43;nan;99871.81;5003846;28;20711;-65
2022/09/30 02:45:16;;;;;;;2.13;2.00;;;11.00;99.90;;;11.45;nan;99880.34;5009601;28;20705;-65
2022/09/30 02:48:07;;;;;;;2.70;1.77;;;11.00;99.90;;;11.39;nan;99873.03;4991982;28;21029;-67
2022/09/30 02:51:03;;;;;;;2.10;2.00;;;11.00;99.90;;;11.33;nan;99873.59;4991751;28;20622;-66
2022/09/30 02:54:02;;;;;;;2.10;2.00;;;11.00;99.90;;;11.20;nan;99875.59;4976614;28;20636;-66
2022/09/30 02:56:47;;;;;;;2.70;1.93;;;10.90;99.90;;;11.18;nan;99875.72;4992224;28;20625;-65
2022/09/30 02:59:14;;;;;;;1.80;1.70;;;10.80;99.90;;;11.09;nan;99873.91;4992056;28;21244;-65
2022/09/30 03:01:42;;;;;;;1.80;1.70;;;10.70;99.90;;;11.04;nan;99885.69;5011099;28;21080;-66
2022/09/30 03:04:16;;;;;;;2.03;1.90;;;10.70;99.90;;;11.05;nan;99877.75;5009377;28;20634;-65
2022/09/30 03:06:43;;;;;;;2.77;2.30;;;10.70;99.90;;;10.97;nan;99882.78;4994961;28;20987;-65
2022/09/30 03:09:10;;;;;;;1.87;1.77;;;10.60;99.90;;;11.03;nan;99877.03;5008987;28;21066;-68
2022/09/30 03:11:37;;;;;;;2.37;1.73;;;10.60;99.90;;;10.94;nan;99883.06;5007298;28;20667;-66
2022/09/30 03:14:23;;;;;;;1.73;1.70;;;10.60;99.90;;;10.91;nan;99883.28;5010176;28;21217;-66
2022/09/30 03:17:08;;;;;;;1.83;1.73;;;10.60;99.90;;;10.83;nan;99880.50;5009025;28;20719;-66
2022/09/30 03:20:25;;;;;;;1.60;1.60;;;10.50;99.90;;;10.76;nan;99879.38;5014071;28;21263;-66
2022/09/30 03:23:29;;;;;;;1.87;1.77;;;10.50;99.90;;;10.71;nan;99876.34;5012378;28;21014;-66
2022/09/30 03:26:40;;;;;;;2.17;1.93;;;10.40;99.90;;;10.72;nan;99888.41;4995672;28;20679;-66
2022/09/30 03:29:22;;;;;;;2.03;1.67;;;10.40;99.90;;;10.69;nan;99897.31;4994544;28;20640;-65
2022/09/30 03:32:23;;;;;;;1.37;1.37;;;10.40;99.90;;;10.65;nan;99897.69;5013298;28;20999;-66
2022/09/30 03:35:35;;;;;;;1.50;1.40;;;10.40;99.90;;;10.59;nan;99898.22;4989256;28;20641;-68
2022/09/30 03:38:36;;;;;;;1.77;1.67;;;10.30;99.90;;;10.63;nan;99900.44;4955509;28;20712;-66
2022/09/30 03:41:23;;;;;;;1.60;1.50;;;10.30;99.90;;;10.62;nan;99893.59;4978063;28;20676;-66
2022/09/30 03:44:03;;;;;;;1.70;1.60;;;10.30;99.90;;;10.53;nan;99893.53;4995253;28;20629;-67
2022/09/30 03:46:44;;;;;;;3.30;2.20;;;10.30;99.90;;;10.39;nan;99883.41;4995085;28;21420;-67
2022/09/30 03:49:24;;;;;;;2.53;2.33;;;10.20;99.90;;;10.33;nan;99881.31;4995519;28;20663;-67
2022/09/30 03:51:52;;;;;;;2.50;2.20;;;10.20;99.90;;;10.32;nan;99884.88;4994819;28;20640;-66
2022/09/30 03:54:21;;;;;;;1.80;1.70;;;10.10;99.90;;;10.32;nan;99885.69;4995340;28;21035;-65
2022/09/30 03:56:49;;;;;;;2.77;1.60;;;10.00;99.90;;;10.02;nan;99896.00;5010845;28;20648;-66
2022/09/30 03:59:29;;;;;;;2.00;1.90;;;10.00;99.90;;;10.01;nan;99902.13;5000566;28;21098;-65
2022/09/30 04:01:59;;;;;;;1.60;1.50;;;10.00;99.90;;;9.99;nan;99901.44;4991952;28;21158;-66
2022/09/30 04:04:26;;;;;;;1.97;1.87;;;10.00;99.90;;;9.91;nan;99909.88;4993188;28;20619;-66
2022/09/30 04:06:53;;;;;;;2.47;2.27;;;9.90;99.90;;;9.93;nan;99907.16;4994578;28;20618;-66
2022/09/30 04:09:19;;;;;;;2.20;2.10;;;9.90;99.90;;;9.87;nan;99903.28;4993924;28;21204;-63
2022/09/30 04:11:47;;;;;;;1.67;1.67;;;9.80;99.90;;;9.71;nan;99912.44;5011872;28;20691;-65
2022/09/30 04:14:13;;;;;;;1.90;1.80;;;9.80;99.90;;;9.61;nan;99912.31;5010082;28;20642;-65
2022/09/30 04:16:41;;;;;;;1.37;1.37;;;9.70;99.90;;;9.57;nan;99915.28;4994488;28;21212;-66
2022/09/30 04:19:08;;;;;;;3.43;2.03;;;9.70;99.90;;;9.67;nan;99917.06;5012179;28;20668;-66
2022/09/30 04:21:35;;;;;;;1.60;1.50;;;9.60;99.90;;;9.69;nan;99922.16;5012421;28;20644;-66
2022/09/30 04:24:02;;;;;;;2.57;2.23;;;9.60;99.90;;;9.55;nan;99928.44;5013135;28;21196;-65
2022/09/30 04:26:29;;;;;;;5.63;3.10;;;9.60;99.90;;;9.41;nan;99933.91;5013636;28;20624;-67
2022/09/30 04:28:57;;;;;;;2.87;2.67;;;9.50;99.90;;;9.23;nan;99930.97;5011292;28;20672;-66
2022/09/30 04:31:24;;;;;;;4.73;2.80;;;9.40;99.90;;;9.23;nan;99925.75;5012834;28;20995;-65
2022/09/30 04:33:51;;;;;;;5.40;2.30;;;9.40;99.90;;;9.11;nan;99937.13;5012841;28;21022;-67
2022/09/30 04:36:18;;;;;;;3.57;3.00;;;9.30;99.90;;;9.31;nan;99940.75;5012446;28;20620;-66
2022/09/30 04:38:45;;;;;;;4.13;3.10;;;9.30;99.90;;;9.24;nan;99943.00;4993927;28;21102;-65
2022/09/30 04:41:16;;;;;;;3.87;2.83;;;9.30;99.90;;;9.26;nan;99943.72;4991432;28;20644;-66
2022/09/30 04:43:47;;;;;;;2.53;2.37;;;9.30;99.90;;;9.20;nan;99943.34;5005935;28;20690;-65
2022/09/30 04:46:17;;;;;;;2.80;2.60;;;9.30;99.90;;;9.16;nan;99940.19;4992033;28;20653;-67
2022/09/30 04:48:45;;;;;;;4.70;3.10;;;9.30;99.90;;;9.10;nan;99945.84;5006750;28;20709;-67
2022/09/30 04:51:17;;;;;;;2.40;2.30;;;9.20;99.90;;;9.05;nan;99947.97;5011149;28;20692;-65
2022/09/30 04:53:46;;;;;;;2.13;1.80;;;9.10;99.90;;;9.07;nan;99955.69;5011103;28;20642;-66
2022/09/30 04:56:15;;;;;;;2.63;2.40;;;9.10;99.90;;;8.94;nan;99955.78;4993442;28;21268;-66
2022/09/30 04:58:42;;;;;;;2.80;2.60;;;9.10;99.90;;;9.06;nan;99951.41;5009765;28;21252;-67
2022/09/30 05:01:16;;;;;;;3.40;3.10;;;9.10;99.90;;;9.15;nan;99954.16;4991890;28;20635;-65
2022/09/30 05:03:43;;;;;;;3.27;2.87;;;9.20;99.90;;;9.12;nan;99964.78;5011643;28;20621;-66
2022/09/30 05:06:11;;;;;;;2.80;2.60;;;9.20;99.90;;;9.09;nan;99965.00;5011738;28;20636;-66
2022/09/30 05:08:38;;;;;;;2.17;1.90;;;9.20;99.90;;;8.95;nan;99970.44;5010965;28;21248;-66
2022/09/30 05:11:18;;;;;;;2.00;1.90;;;9.10;99.90;;;8.99;nan;99966.66;5010546;28;21219;-65
2022/09/30 05:13:46;;;;;;;2.40;2.30;;;9.00;99.90;;;8.93;nan;99966.28;5009961;28;20685;-66
2022/09/30 05:16:15;;;;;;;2.70;2.50;;;9.00;99.90;;;8.96;nan;99969.50;5002801;28;20693;-66
2022/09/30 05:18:44;;;;;;;3.77;2.53;;;9.00;99.90;;;8.86;nan;99972.91;5010039;28;20660;-66
2022/09/30 05:21:15;;;;;;;2.33;2.23;;;9.00;99.90;;;8.87;nan;99972.78;4990871;28;20626;-66
2022/09/30 05:23:42;;;;;;;2.47;1.90;;;9.00;99.90;;;8.81;nan;99978.47;4985087;28;21193;-66
2022/09/30 05:26:09;;;;;;;2.27;1.83;;;8.90;99.90;;;8.92;nan;99995.88;4993875;28;20629;-66
2022/09/30 05:28:40;;;;;;;2.00;1.90;;;8.90;99.90;;;8.89;nan;99999.53;5010340;28;21111;-66
2022/09/30 05:31:07;;;;;;;2.17;2.00;;;8.90;99.90;;;8.96;nan;99999.91;5011143;28;21311;-66
2022/09/30 05:33:35;;;;;;;1.93;1.83;;;8.90;99.90;;;8.98;nan;100005.81;4993123;28;20615;-65
2022/09/30 05:36:05;;;;;;;2.67;2.13;;;8.90;99.90;;;8.88;nan;100003.06;4992337;28;20746;-65
2022/09/30 05:38:34;;;;;;;2.93;2.73;;;8.90;99.90;;;8.93;nan;100013.13;5010407;28;20659;-65
2022/09/30 05:41:13;;;;;;;2.20;2.00;;;9.00;99.90;;;8.92;nan;100017.47;4992470;28;20640;-66
2022/09/30 05:43:44;;;;;;;2.80;2.60;;;8.90;99.90;;;8.97;nan;100022.34;5005750;28;20684;-65
2022/09/30 05:46:11;;;;;;;2.87;2.67;;;8.90;99.90;;;9.00;nan;100030.78;5010973;28;20639;-65
2022/09/30 05:48:38;;;;;;;2.67;2.47;;;9.00;99.90;;;9.09;nan;100029.25;5009127;28;20729;-66
2022/09/30 05:51:06;;;;;;;3.07;2.77;;;9.10;99.90;;;9.20;nan;100043.09;5011207;28;20627;-65
2022/09/30 05:53:37;;;;;;;2.70;2.50;;;9.10;99.90;;;9.23;nan;100049.84;4992773;28;20633;-66
2022/09/30 05:56:06;;;;;;;4.00;2.90;;;9.10;99.90;;;9.28;nan;100052.94;4994276;28;20628;-66
2022/09/30 05:58:34;;;;;;;3.97;3.03;;;9.20;99.90;;;9.30;nan;100057.09;4993393;28;20675;-65
2022/09/30 06:01:08;;;;;;;3.97;3.30;;;9.20;99.90;;;9.32;nan;100062.19;4975339;28;20674;-66
2022/09/30 06:03:43;;;;;;;3.80;2.80;;;9.30;99.90;;;9.51;nan;100069.41;5001767;28;20625;-65
2022/09/30 06:06:10;;;;;;;3.10;2.70;;;9.30;99.90;;;9.75;nan;100072.75;4991809;28;20986;-66
2022/09/30 06:08:37;;;;;;;3.00;2.80;;;9.50;99.90;;;10.32;nan;100070.84;5009644;28;20726;-66
2022/09/30 06:11:10;;;;;;;3.70;3.40;;;9.70;99.90;;;10.84;nan;100070.03;5008968;28;20636;-66
2022/09/30 06:13:40;;;;;;;3.87;3.17;;;10.10;99.90;;;11.56;nan;100070.97;5008584;28;20645;-67
2022/09/30 06:16:08;;;;;;;3.10;2.90;;;10.60;99.90;;;12.58;nan;100074.19;5009902;28;20629;-66
2022/09/30 06:18:37;;;;;;;3.53;3.20;;;11.20;99.90;;;13.76;nan;100076.38;5009883;28;20646;-66
2022/09/30 06:21:04;;;;;;;4.37;3.67;;;11.90;99.90;;;14.45;nan;100079.38;4973491;28;20666;-66
2022/09/30 06:23:33;;;;;;;3.67;3.37;;;12.60;99.90;;;15.61;nan;100074.81;4985396;28;20639;-66
2022/09/30 06:26:03;;;;;;;3.90;3.43;;;13.30;99.90;;;16.66;nan;100073.41;5010007;28;20995;-67
2022/09/30 06:28:34;;;;;;;3.27;3.07;;;14.00;99.90;;;17.26;nan;100080.00;4991078;28;21220;-67
2022/09/30 06:31:02;;;;;;;4.47;2.97;;;14.70;99.90;;;17.82;nan;100082.56;5009931;28;21274;-66
2022/09/30 06:33:30;;;;;;;5.07;4.00;;;15.30;99.90;;;18.41;nan;100089.09;5009015;28;20628;-66
2022/09/30 06:35:58;;;;;;;5.03;3.93;;;15.80;99.90;;;18.71;nan;100084.81;5009631;28;20676;-65
2022/09/30 06:38:27;;;;;;;5.80;3.93;;;16.30;99.90;;;18.00;nan;100090.25;5009281;28;20665;-66
2022/09/30 06:40:55;;;;;;;3.63;3.23;;;16.60;99.90;;;18.98;nan;100100.13;5013981;28;20781;-66
2022/09/30 06:43:22;;;;;;;6.33;4.50;;;16.80;99.90;;;19.74;nan;100099.16;5014211;28;21364;-66
2022/09/30 06:45:50;;;;;;;5.47;4.17;;;17.10;99.90;;;19.52;nan;100106.16;5013519;28;20634;-66
2022/09/30 06:48:17;;;;;;;4.50;4.10;;;17.30;99.90;;;19.71;nan;100110.94;5013033;28;20680;-66
2022/09/30 06:50:57;;;;;;;10.27;5.20;;;17.60;99.90;;;20.11;nan;100114.94;5012765;28;20642;-67
2022/09/30 06:53:28;;;;;;;4.10;3.80;;;17.80;99.90;;;20.56;nan;100121.84;4996850;28;20617;-65
2022/09/30 06:55:58;;;;;;;5.20;4.50;;;18.10;99.90;;;20.95;nan;100130.25;4994720;28;21002;-66
2022/09/30 06:58:25;;;;;;;5.57;4.50;;;18.20;99.90;;;21.48;nan;100132.38;5004635;28;20665;-66
2022/09/30 07:01:02;;;;;;;10.43;5.23;;;18.40;99.90;;;21.75;nan;100137.88;5013261;28;20665;-66
2022/09/30 07:03:34;;;;;;;8.27;4.40;;;18.80;99.90;;;22.04;nan;100124.41;4992477;28;20623;-67
2022/09/30 07:06:04;;;;;;;7.03;4.53;;;19.20;99.20;;;22.42;nan;100112.31;4993643;28;20602;-65
2022/09/30 07:08:34;;;;;;;6.10;4.60;;;19.50;98.60;;;22.70;nan;100122.88;4986664;28;20662;-66
2022/09/30 07:11:03;;;;;;;8.23;4.90;;;19.80;97.80;;;;;;4991018;28;20626;-65
2022/09/30 07:13:31;;;;;;;7.03;5.30;;;20.20;96.60;;;22.59;nan;100118.13;5009383;28;21039;-66
2022/09/30 07:15:58;;;;;;;6.07;5.33;;;20.20;95.50;;;21.06;nan;100111.19;4972948;28;20629;-64
2022/09/30 07:18:27;;;;;;;7.53;5.47;;;19.80;95.40;;;20.96;nan;100115.94;5012072;28;20665;-66
2022/09/30 07:20:55;;;;;;;6.47;5.50;;;19.50;96.70;;;21.60;nan;100117.56;5012599;28;20661;-66
2022/09/30 07:23:25;;;;;;;9.83;5.50;;;19.70;96.40;;;22.03;nan;100122.75;5012289;28;20638;-66
2022/09/30 07:25:59;;;;;;;4.53;4.07;;;20.00;95.70;;;21.57;nan;100131.22;4995129;28;21004;-66
2022/09/30 07:28:32;;;;;;;7.47;5.00;;;20.10;94.40;;;21.13;nan;100130.63;5013177;28;20649;-67
2022/09/30 07:31:06;;;;;;;5.30;4.80;;;19.60;95.60;;;20.35;nan;100149.13;5014079;28;20590;-68
2022/09/30 07:33:55;;;;;;;6.63;4.87;;;19.10;96.30;;;21.06;nan;100150.97;5007320;28;20726;-64
2022/09/30 07:36:28;;;;;;;5.40;4.90;;;19.10;96.80;;;21.10;nan;100154.91;5005659;28;21002;-65
2022/09/30 07:39:04;;;;;;;6.03;4.97;;;19.30;96.40;;;20.96;nan;100160.22;5011270;28;21058;-66
2022/09/30 07:41:31;;;;;;;8.27;5.63;;;19.10;96.10;;;20.87;nan;100155.03;4995716;28;20669;-65
2022/09/30 07:43:58;;;;;;;8.43;5.20;;;18.80;96.90;;;22.06;nan;100156.91;5011618;28;21039;-65
2022/09/30 07:46:29;;;;;;;7.10;5.10;;;19.20;97.40;;;23.35;nan;100172.75;5011851;28;20638;-65
2022/09/30 07:49:01;;;;;;;6.73;5.50;;;20.30;95.40;;;25.42;nan;100174.19;5010719;28;21014;-65
2022/09/30 07:51:32;;;;;;;5.70;4.10;;;21.60;93.20;;;25.73;nan;100175.97;5006849;28;21209;-65
2022/09/30 07:54:04;;;;;;;7.90;6.37;;;22.30;90.90;;;25.67;nan;100167.00;5011723;28;20679;-65
2022/09/30 07:56:32;;;;;;;6.10;5.50;;;22.40;90.20;;;25.63;nan;100173.81;4996523;28;20660;-65
2022/09/30 07:59:18;;;;;;;12.33;7.30;;;22.70;88.50;;;25.31;nan;100170.34;5011685;28;20630;-65
2022/09/30 08:01:46;;;;;;;7.70;5.40;;;22.70;88.00;;;25.01;nan;100168.47;5011828;28;20640;-67
2022/09/30 08:04:14;;;;;;;10.03;6.17;;;22.50;86.60;;;25.25;nan;100163.19;5010143;28;20622;-66
2022/09/30 08:06:45;;;;;;;10.07;7.10;;;22.50;86.90;;;26.26;nan;100165.63;4995986;28;21042;-66
2022/09/30 08:09:15;;;;;;;7.23;6.40;;;23.00;86.40;;;27.10;nan;100161.03;4994954;28;20640;-66
2022/09/30 08:11:42;;;;;;;12.90;7.17;;;23.80;83.70;;;27.90;nan;100169.44;5011325;28;20970;-67
2022/09/30 08:14:20;;;;;;;6.73;6.03;;;24.60;80.50;;;28.70;nan;100181.13;5011177;28;20900;-66
2022/09/30 08:16:47;;;;;;;8.20;6.43;;;25.20;76.80;;;30.33;nan;100181.72;5008857;28;20640;-66
2022/09/30 08:19:22;;;;;;;7.50;6.70;;;25.90;73.70;;;31.36;nan;100185.03;5002086;28;20634;-66
2022/09/30 08:21:51;;;;;;;7.80;6.60;;;26.60;71.40;;;32.04;nan;100189.66;4994622;28;21051;-67
2022/09/30 08:24:18;;;;;;;9.03;6.90;;;27.20;68.60;;;32.61;nan;100199.66;5012780;28;20621;-66
2022/09/30 08:26:44;;;;;;;8.17;7.20;;;27.60;66.30;;;33.91;nan;100187.38;5010782;28;20640;-67
2022/09/30 08:29:13;;;;;;;7.73;6.93;;;28.40;65.20;;;34.38;nan;100188.63;5010683;28;20634;-66
2022/09/30 08:31:46;;;;;;;9.80;6.97;;;29.20;62.50;;;35.18;nan;100193.94;5012423;28;20644;-66
2022/09/30 08:34:14;;;;;;;8.10;7.30;;;29.90;60.10;;;35.13;nan;100193.97;4995305;28;20605;-66
2022/09/30 08:36:41;;;;;;;8.80;6.77;;;30.10;58.60;;;36.59;nan;100204.25;5012273;28;20640;-67
2022/09/30 08:39:09;;;;;;;7.67;6.90;;;30.70;56.90;;;37.55;nan;100205.59;5012161;28;20675;-66
2022/09/30 08:41:53;;;;;;;10.00;6.73;;;31.30;55.40;;;37.35;nan;100195.88;5012120;28;21015;-67
2022/09/30 08:44:42;;;;;;;8.33;7.53;;;31.10;55.00;;;37.74;nan;100195.50;5007622;28;20641;-67
2022/09/30 08:47:26;;;;;;;8.53;7.20;;;31.40;54.70;;;37.66;nan;100199.69;4966127;28;21249;-67
2022/09/30 08:50:16;;;;;;;8.67;7.77;;;32.00;53.00;;;39.10;nan;100207.16;4982580;28;21042;-66
2022/09/30 08:52:56;;;;;;;8.70;7.20;;;32.60;52.00;;;38.71;nan;100204.25;5011062;28;20633;-66
2022/09/30 08:55:38;;;;;;;7.80;7.00;;;32.60;50.90;;;38.75;nan;100188.88;4998709;28;20665;-68
2022/09/30 08:58:15;;;;;;;8.53;7.60;;;32.70;50.90;;;39.78;nan;100193.22;4983670;28;20670;-67
2022/09/30 09:00:42;;;;;;;7.63;6.93;;;33.10;50.50;;;40.77;nan;100193.41;4992980;28;21303;-68
2022/09/30 09:03:12;;;;;;;7.80;7.10;;;33.90;49.60;;;41.88;nan;100195.25;4993177;28;20699;-66
2022/09/30 09:06:07;;;;;;;7.60;6.97;;;34.60;48.80;;;42.85;nan;100198.81;4980630;28;20634;-68
2022/09/30 09:08:58;;;;;;;8.50;7.30;;;35.40;47.50;;;43.70;nan;100192.53;4983731;28;21034;-67
2022/09/30 09:12:21;;;;;;;8.23;7.50;;;36.20;46.50;;;43.77;nan;100194.72;5005648;28;21182;-67
2022/09/30 09:15:20;;;;;;;11.00;8.97;;;36.60;45.10;;;43.28;nan;100198.47;4997879;28;20650;-68
2022/09/30 09:18:43;;;;;;;8.57;7.77;;;36.90;44.50;;;44.33;nan;100202.13;5012068;28;20654;-68
2022/09/30 09:21:39;;;;;;;12.07;7.40;;;37.10;44.20;;;44.94;nan;100197.31;5010155;28;21042;-68
2022/09/30 09:24:20;;;;;;;13.40;8.13;;;37.40;43.70;;;45.42;nan;100195.53;5011576;28;20637;-69
2022/09/30 09:26:47;;;;;;;8.03;7.40;;;37.60;43.40;;;46.21;nan;100199.97;5011052;28;20746;-69
2022/09/30 09:29:37;;;;;;;8.60;7.90;;;38.10;43.00;;;46.32;nan;100199.09;5005777;28;20633;-67
2022/09/30 09:32:17;;;;;;;9.67;8.67;;;38.60;42.60;;;46.27;nan;100196.56;5009080;28;20633;-66
2022/09/30 09:34:50;;;;;;;8.97;8.17;;;38.60;42.30;;;46.54;nan;100186.56;5003496;28;20636;-69
2022/09/30 09:38:23;;;;;;;8.53;7.73;;;38.80;41.90;;;46.73;nan;100192.94;4993758;28;20658;-68
2022/09/30 09:40:56;;;;;;;7.57;6.93;;;38.90;41.60;;;46.91;nan;100190.56;5008923;28;20666;-70
2022/09/30 09:43:50;;;;;;;7.73;7.03;;;39.00;41.00;;;47.17;nan;100195.44;4992250;28;21158;-67
2022/09/30 09:46:54;;;;;;;7.00;6.50;;;39.20;41.00;;;47.74;nan;100200.09;5004978;28;21029;-67
2022/09/30 09:49:32;;;;;;;7.03;6.43;;;39.60;40.60;;;48.30;nan;100201.81;5010317;28;20601;-68
2022/09/30 09:52:11;;;;;;;7.20;6.60;;;40.00;40.30;;;48.04;nan;100199.03;5010243;28;21216;-68
2022/09/30 09:54:55;;;;;;;7.10;6.60;;;40.10;39.80;;;48.58;nan;100200.66;5009756;28;20634;-66
2022/09/30 09:57:30;;;;;;;7.23;6.70;;;40.30;39.90;;;48.66;nan;100197.59;5010166;28;20766;-66
2022/09/30 10:03:23;;;;;;;7.00;6.30;;;41.00;39.10;;;49.66;nan;100200.38;5010874;28;20619;-66
2022/09/30 10:06:08;;;;;;;5.50;5.10;;;41.40;38.70;;;49.77;nan;100206.81;5011816;28;21045;-67
2022/09/30 10:08:52;;;;;;;5.00;4.63;;;41.60;38.50;;;49.62;nan;100202.31;5009044;28;20665;-67
2022/09/30 10:11:26;;;;;;;5.00;4.70;;;41.60;38.00;;;49.69;nan;100205.94;5010431;28;20625;-66
2022/09/30 10:13:57;;;;;;;5.50;5.00;;;41.60;37.80;;;49.73;nan;100194.91;5009388;28;20703;-67
2022/09/30 10:16:36;;;;;;;6.47;6.07;;;41.50;37.90;;;49.17;nan;100186.81;5009649;28;20630;-66
2022/09/30 10:19:27;;;;;;;6.90;6.30;;;41.40;38.10;;;48.63;nan;100178.16;5004589;28;20738;-67
2022/09/30 10:22:06;;;;;;;6.70;6.30;;;41.00;38.00;;;46.67;nan;100169.53;5009881;28;20669;-65
2022/09/30 10:24:37;;;;;;;6.80;6.30;;;39.90;38.10;;;44.32;nan;100164.75;5008106;28;20638;-67
2022/09/30 10:27:29;;;;;;;7.50;6.53;;;38.90;38.80;;;44.17;nan;100167.41;4993985;28;20650;-67
2022/09/30 10:29:56;;;;;;;6.60;6.10;;;38.10;39.80;;;42.62;nan;100159.13;5009166;28;20640;-67
2022/09/30 10:32:24;;;;;;;6.73;6.03;;;36.80;40.60;;;40.29;nan;100163.38;5010756;28;20695;-67
2022/09/30 10:35:01;;;;;;;8.27;6.83;;;35.20;42.00;;;;;;4998796;28;20633;-68
2022/09/30 10:37:28;;;;;;;9.63;6.27;;;33.30;43.30;;;34.21;nan;100152.13;5004646;28;20687;-68
2022/09/30 10:40:05;;;;;;;5.70;5.17;;;31.70;45.00;;;31.64;nan;100148.88;5009154;28;20621;-70
2022/09/30 10:42:37;;;;;;;7.30;5.87;;;29.90;46.80;;;28.25;nan;100132.69;5006304;28;20633;-68
2022/09/30 10:45:08;;;;;;;4.97;4.57;;;28.00;48.30;;;26.27;nan;100140.50;4989065;28;21441;-68
2022/09/30 10:47:45;;;;;;;8.33;5.73;;;26.20;50.80;;;24.71;nan;100133.53;5005682;28;21099;-67
2022/09/30 10:50:20;;;;;;;6.40;5.00;;;24.80;52.70;;;24.31;nan;100127.56;4991974;28;20625;-66
2022/09/30 10:52:58;;;;;;;8.10;6.33;;;23.80;55.00;;;23.84;nan;100138.53;4992655;28;21203;-66
2022/09/30 10:55:33;;;;;;;12.43;6.53;;;23.20;57.80;;;23.30;nan;100141.38;4977328;28;21207;-65
2022/09/30 10:58:36;;;;;;;14.10;6.87;;;22.60;59.00;;;22.95;nan;100140.75;5006355;28;20667;-67
2022/09/30 11:01:46;;;;;;;11.30;6.77;;;22.10;60.50;;;22.55;nan;100133.66;4991954;28;20653;-66
2022/09/30 11:04:35;;;;;;;7.00;5.10;;;21.70;61.90;;;22.22;nan;100135.31;5009014;28;20636;-66
2022/09/30 11:07:29;;;;;;;12.00;4.70;;;21.30;62.90;;;21.92;nan;100136.59;5011055;28;21204;-66
2022/09/30 11:10:23;;;;;;;9.23;6.30;;;21.00;63.50;;;21.39;nan;100130.03;5010829;28;21013;-66
2022/09/30 11:13:00;;;;;;;9.10;6.13;;;20.70;64.90;;;21.38;nan;100139.84;5011193;28;20626;-65
2022/09/30 11:16:08;;;;;;;7.50;4.90;;;20.40;66.10;;;21.26;nan;100141.38;5010948;28;21168;-65